createdAt,value
2019-05-13T00:02:28.924Z,94924.33
2019-05-13T00:04:59.590Z,94912.05
2019-05-13T00:07:30.081Z,94913.78
2019-05-13T00:10:00.680Z,94916.52
2019-05-13T00:12:31.311Z,94914.27
2019-05-13T00:15:03.640Z,94919.89
2019-05-13T00:17:33.923Z,94914.22
2019-05-13T00:20:04.319Z,94922.75
2019-05-13T00:22:35.971Z,94921.04
2019-05-13T00:25:06.996Z,94917.63
2019-05-13T00:27:37.584Z,94918.38
2019-05-13T00:30:08.328Z,94918.07
2019-05-13T00:32:38.837Z,94921.97
2019-05-13T00:35:09.242Z,94924.82
2019-05-13T00:37:39.723Z,94916.84
2019-05-13T00:40:10.052Z,94919.38
2019-05-13T00:42:40.792Z,94914.68
2019-05-13T00:45:14.255Z,94913.13
2019-05-13T00:47:44.043Z,94909.70
2019-05-13T00:50:14.553Z,94910.36
2019-05-13T00:52:46.071Z,94911.17
2019-05-13T00:55:16.487Z,94911.63
2019-05-13T00:57:46.856Z,94902.82
2019-05-13T01:00:17.432Z,94909.98
2019-05-13T01:02:47.890Z,94907.09
2019-05-13T01:05:18.790Z,94909.80
2019-05-13T01:07:49.283Z,94910.37
2019-05-13T01:10:19.868Z,94909.33
2019-05-13T01:12:50.321Z,94916.41
2019-05-13T01:15:20.771Z,94911.05
2019-05-13T01:17:53.387Z,94921.97
2019-05-13T01:20:23.637Z,94920.27
2019-05-13T01:22:54.243Z,94911.83
2019-05-13T01:25:24.887Z,94915.98
2019-05-13T01:27:55.494Z,94919.27
2019-05-13T01:30:25.975Z,94913.29
2019-05-13T01:32:56.203Z,94912.09
2019-05-13T01:35:26.722Z,94905.97
2019-05-13T01:37:57.284Z,94909.52
2019-05-13T01:40:27.665Z,94917.64
2019-05-13T01:42:58.019Z,94921.47
2019-05-13T01:45:28.592Z,94920.75
2019-05-13T01:47:59.259Z,94919.00
2019-05-13T01:50:29.998Z,94923.77
2019-05-13T01:53:00.289Z,94914.31
2019-05-13T01:55:33.565Z,94924.33
2019-05-13T01:58:04.246Z,94918.89
2019-05-13T02:00:35.738Z,94919.79
2019-05-13T02:03:06.425Z,94930.98
2019-05-13T02:05:36.978Z,94935.56
2019-05-13T02:08:07.284Z,94940.59
2019-05-13T02:11:09.118Z,94941.73
2019-05-13T02:13:39.502Z,94936.85
2019-05-13T02:16:11.051Z,94935.69
2019-05-13T02:18:41.324Z,94941.64
2019-05-13T02:21:13.539Z,94934.48
2019-05-13T02:23:44.406Z,94944.58
2019-05-13T02:26:15.273Z,94940.72
2019-05-13T02:28:45.786Z,94936.05
2019-05-13T02:31:22.875Z,94935.77
2019-05-13T02:33:48.473Z,94939.11
2019-05-13T02:36:22.535Z,94935.48
2019-05-13T02:38:53.196Z,94939.83
2019-05-13T02:41:24.409Z,94938.50
2019-05-13T02:43:54.870Z,94936.16
2019-05-13T02:46:25.566Z,94940.87
2019-05-13T02:48:56.319Z,94945.02
2019-05-13T02:51:26.789Z,94946.14
2019-05-13T02:53:57.351Z,94954.02
2019-05-13T02:56:28.053Z,94947.42
2019-05-13T02:58:58.309Z,94955.02
2019-05-13T03:01:28.818Z,94956.28
2019-05-13T03:04:02.778Z,94950.66
2019-05-13T03:06:33.121Z,94953.67
2019-05-13T03:09:05.091Z,94961.14
2019-05-13T03:11:35.572Z,94963.69
2019-05-13T03:14:06.073Z,94961.27
2019-05-13T03:17:04.446Z,94969.89
2019-05-13T03:19:35.170Z,94973.13
2019-05-13T03:22:05.686Z,94979.56
2019-05-13T03:24:36.225Z,94985.06
2019-05-13T03:27:06.980Z,94987.55
2019-05-13T03:29:37.756Z,94996.74
2019-05-13T03:32:08.352Z,94989.10
2019-05-13T03:34:38.648Z,94997.02
2019-05-13T03:37:14.648Z,94999.72
2019-05-13T03:39:43.450Z,95007.83
2019-05-13T03:42:15.478Z,95005.95
2019-05-13T03:44:46.177Z,94997.55
2019-05-13T03:47:17.971Z,94997.03
2019-05-13T03:49:53.162Z,94998.44
2019-05-13T03:52:22.690Z,94993.61
2019-05-13T03:54:54.154Z,94995.70
2019-05-13T03:57:24.883Z,94999.32
2019-05-13T03:59:55.410Z,94995.78
2019-05-13T04:02:25.798Z,94995.17
2019-05-13T04:04:58.918Z,94994.61
2019-05-13T04:07:28.389Z,94999.13
2019-05-13T04:09:58.857Z,94994.33
2019-05-13T04:12:29.333Z,94996.78
2019-05-13T04:15:03.410Z,94995.78
2019-05-13T04:17:32.386Z,94993.11
2019-05-13T04:20:03.281Z,95002.17
2019-05-13T04:22:33.645Z,94998.07
2019-05-13T04:25:04.037Z,94999.32
2019-05-13T04:27:34.507Z,94992.48
2019-05-13T04:30:05.238Z,94997.94
2019-05-13T04:32:35.651Z,95003.30
2019-05-13T04:35:06.212Z,95001.69
2019-05-13T04:37:38.327Z,94995.64
2019-05-13T04:40:12.488Z,94999.94
2019-05-13T04:42:42.677Z,95003.33
2019-05-13T04:45:13.726Z,94999.13
2019-05-13T04:47:44.450Z,94997.34
2019-05-13T04:50:15.041Z,95006.98
2019-05-13T04:52:45.611Z,95000.34
2019-05-13T04:55:16.274Z,94995.91
2019-05-13T04:57:46.728Z,94996.44
2019-05-13T05:00:22.538Z,94991.73
2019-05-13T05:03:03.832Z,94990.52
2019-05-13T05:05:53.657Z,94994.93
2019-05-13T05:08:47.229Z,94991.03
2019-05-13T05:11:38.832Z,94995.69
2019-05-13T05:14:22.490Z,94994.97
2019-05-13T05:17:03.333Z,94994.27
2019-05-13T05:19:46.670Z,94998.80
2019-05-13T05:22:22.294Z,95001.16
2019-05-13T05:25:06.966Z,95003.94
2019-05-13T05:28:03.804Z,94997.34
2019-05-13T05:31:04.752Z,94993.70
2019-05-13T05:33:54.103Z,94998.00
2019-05-13T05:36:51.896Z,94990.52
2019-05-13T05:39:25.626Z,94994.16
2019-05-13T05:41:57.051Z,94997.36
2019-05-13T05:44:29.021Z,94995.50
2019-05-13T05:47:02.539Z,94994.36
2019-05-13T05:49:33.233Z,94988.01
2019-05-13T05:52:04.514Z,94993.30
2019-05-13T05:54:37.686Z,95001.89
2019-05-13T05:57:08.839Z,94985.97
2019-05-13T05:59:39.422Z,94995.34
2019-05-13T06:02:12.148Z,94994.03
2019-05-13T06:04:44.588Z,94995.63
2019-05-13T06:07:15.376Z,94997.20
2019-05-13T06:09:45.979Z,94993.39
2019-05-13T06:12:16.437Z,94992.12
2019-05-13T06:14:47.238Z,95002.23
2019-05-13T06:17:17.720Z,95004.05
2019-05-13T06:19:48.220Z,95001.36
2019-05-13T06:22:18.837Z,94992.61
2019-05-13T06:24:49.306Z,95006.80
2019-05-13T06:27:21.324Z,95009.19
2019-05-13T06:29:54.937Z,95005.73
2019-05-13T06:32:26.574Z,95004.62
2019-05-13T06:34:57.471Z,94999.58
2019-05-13T06:37:27.769Z,94997.70
2019-05-13T06:39:58.548Z,95009.32
2019-05-13T06:56:39.379Z,95012.80
2019-05-13T06:59:11.891Z,95023.22
2019-05-13T07:01:43.822Z,95014.41
2019-05-13T07:04:15.337Z,95022.17
2019-05-13T07:19:41.227Z,95016.78
2019-05-13T07:22:11.737Z,95022.64
2019-05-13T07:24:43.892Z,95022.41
2019-05-13T07:27:15.659Z,95037.63
2019-05-13T07:29:47.587Z,95034.72
2019-05-13T07:32:21.940Z,95029.35
2019-05-13T07:34:53.428Z,95024.01
2019-05-13T07:37:26.137Z,95028.28
2019-05-13T07:39:58.208Z,95026.95
2019-05-13T07:42:31.237Z,95022.16
2019-05-13T07:45:01.924Z,95040.05
2019-05-13T07:47:33.582Z,95033.38
2019-05-13T07:50:05.260Z,95037.13
2019-05-13T07:52:37.052Z,95026.42
2019-05-13T07:55:11.783Z,95045.67
2019-05-13T07:57:42.543Z,95035.50
2019-05-13T08:00:14.315Z,95038.19
2019-05-13T08:02:46.057Z,95032.03
2019-05-13T08:05:17.945Z,95027.23
2019-05-13T08:07:51.500Z,95030.70
2019-05-13T08:10:22.858Z,95027.76
2019-05-13T08:12:55.480Z,95028.84
2019-05-13T08:15:27.221Z,95034.42
2019-05-13T08:18:01.804Z,95033.87
2019-05-13T08:20:32.862Z,95034.94
2019-05-13T08:23:04.717Z,95040.83
2019-05-13T08:25:37.063Z,95040.28
2019-05-13T08:28:09.224Z,95046.43
2019-05-13T08:30:42.658Z,95048.85
2019-05-13T08:33:14.205Z,95053.63
2019-05-13T08:35:47.063Z,95059.27
2019-05-13T08:38:19.286Z,95049.65
2019-05-13T08:40:54.036Z,95054.17
2019-05-13T08:43:25.349Z,95046.98
2019-05-13T08:45:57.013Z,95051.50
2019-05-13T08:48:28.605Z,95038.87
2019-05-13T08:51:03.029Z,95036.55
2019-05-13T08:53:33.735Z,95030.11
2019-05-13T08:56:05.352Z,95030.41
2019-05-13T08:58:37.358Z,95036.81
2019-05-13T09:01:09.182Z,95040.30
2019-05-13T09:06:14.710Z,95040.30
2019-05-13T09:08:46.192Z,95052.31
2019-05-13T09:11:18.319Z,95062.23
2019-05-13T09:13:51.604Z,95055.56
2019-05-13T09:16:23.532Z,95048.61
2019-05-13T09:18:55.115Z,95049.95
2019-05-13T09:21:26.883Z,95048.34
2019-05-13T09:23:58.603Z,95033.13
2019-05-13T09:26:31.567Z,95033.09
2019-05-13T09:29:03.642Z,95033.63
2019-05-13T09:31:35.869Z,95040.33
2019-05-13T09:34:07.843Z,95042.72
2019-05-13T09:36:41.758Z,95042.17
2019-05-13T09:39:12.866Z,95047.52
2019-05-13T09:41:44.810Z,95045.37
2019-05-13T09:44:16.696Z,95051.24
2019-05-13T09:46:48.464Z,95049.94
2019-05-13T09:49:23.553Z,95050.20
2019-05-13T09:51:53.486Z,95049.94
2019-05-13T09:54:25.018Z,95058.22
2019-05-13T09:56:57.054Z,95058.48
2019-05-13T09:59:28.573Z,95051.80
2019-05-13T10:02:03.013Z,95056.88
2019-05-13T10:04:34.112Z,95059.55
2019-05-13T10:07:05.838Z,95064.37
2019-05-13T10:09:37.636Z,95067.32
2019-05-13T10:12:11.915Z,95063.58
2019-05-13T10:14:42.965Z,95052.86
2019-05-13T10:17:14.699Z,95059.02
2019-05-13T10:19:46.493Z,95064.36
2019-05-13T10:22:18.381Z,95059.52
2019-05-13T10:24:51.391Z,95070.78
2019-05-13T10:27:24.822Z,95072.38
2019-05-13T10:29:55.496Z,95073.19
2019-05-13T10:32:27.300Z,95078.53
2019-05-13T10:35:02.997Z,95082.81
2019-05-13T10:37:33.642Z,95088.14
2019-05-13T10:40:05.518Z,95082.00
2019-05-13T10:42:37.520Z,95067.83
2019-05-13T10:45:09.429Z,95070.22
2019-05-13T10:47:42.350Z,95070.49
2019-05-13T10:50:15.458Z,95062.75
2019-05-13T10:52:48.328Z,95062.20
2019-05-13T10:55:21.578Z,95055.22
2019-05-13T10:57:54.767Z,95046.39
2019-05-13T11:00:42.820Z,95031.91
2019-05-13T11:03:15.927Z,95035.92
2019-05-13T11:05:48.651Z,95027.86
2019-05-13T11:08:22.147Z,95032.63
2019-05-13T11:10:54.487Z,95029.16
2019-05-13T11:13:26.239Z,95030.76
2019-05-13T11:15:58.677Z,95025.13
2019-05-13T11:18:30.579Z,95033.66
2019-05-13T11:21:02.995Z,95040.13
2019-05-13T11:23:34.720Z,95037.67
2019-05-13T11:26:06.281Z,95036.27
2019-05-13T11:28:38.232Z,95031.11
2019-05-13T11:31:09.930Z,95034.30
2019-05-13T11:33:42.688Z,95028.32
2019-05-13T11:36:18.988Z,95024.83
2019-05-13T11:38:48.487Z,95017.72
2019-05-13T11:41:22.866Z,95019.94
2019-05-13T11:44:12.038Z,95019.88
2019-05-13T11:46:27.334Z,95020.73
2019-05-13T11:48:58.970Z,95026.41
2019-05-13T11:51:31.962Z,95029.58
2019-05-13T11:54:02.801Z,95026.10
2019-05-13T11:56:34.401Z,95026.41
2019-05-13T11:59:05.988Z,95027.01
2019-05-13T12:01:37.668Z,95028.89
2019-05-13T12:04:09.247Z,95026.47
2019-05-13T12:06:48.538Z,95028.03
2019-05-13T12:09:14.447Z,95028.30
2019-05-13T12:11:45.952Z,95031.28
2019-05-13T12:14:39.168Z,95028.34
2019-05-13T12:16:52.645Z,95032.58
2019-05-13T12:19:24.486Z,95028.60
2019-05-13T12:21:56.254Z,95027.49
2019-05-13T12:24:28.170Z,95028.02
2019-05-13T12:27:03.294Z,95025.56
2019-05-13T12:29:33.350Z,95017.20
2019-05-13T12:32:04.979Z,95013.19
2019-05-13T12:34:40.758Z,95018.28
2019-05-13T12:37:12.305Z,95015.05
2019-05-13T12:39:44.259Z,95002.79
2019-05-13T12:42:15.784Z,95000.61
2019-05-13T12:47:22.764Z,95001.94
2019-05-13T12:49:54.641Z,95000.80
2019-05-13T12:52:25.884Z,94983.52
2019-05-13T12:54:57.922Z,94989.30
2019-05-13T12:57:31.917Z,94982.78
2019-05-13T13:00:03.401Z,94979.98
2019-05-13T13:02:37.215Z,94996.13
2019-05-13T13:05:14.078Z,94990.31
2019-05-13T13:07:42.680Z,94986.17
2019-05-13T13:10:14.985Z,94975.73
2019-05-13T13:12:46.496Z,94966.73
2019-05-13T13:15:37.225Z,94967.78
2019-05-13T13:17:54.013Z,94969.28
2019-05-13T13:20:25.986Z,94972.13
2019-05-13T13:22:57.987Z,94965.78
2019-05-13T13:25:29.395Z,94950.40
2019-05-13T13:30:35.452Z,94951.06
2019-05-13T13:33:07.278Z,94955.73
2019-05-13T13:35:44.088Z,94948.21
2019-05-13T13:38:12.550Z,94954.63
2019-05-13T13:40:45.673Z,94939.55
2019-05-13T13:43:17.791Z,94948.28
2019-05-13T13:46:07.730Z,94954.90
2019-05-13T13:48:25.714Z,94957.43
2019-05-13T13:50:57.571Z,94950.03
2019-05-13T13:53:29.537Z,94944.73
2019-05-13T13:56:02.271Z,94940.66
2019-05-13T13:58:33.980Z,94938.62
2019-05-13T14:01:12.484Z,94948.58
2019-05-13T14:03:45.614Z,94954.50
2019-05-13T14:06:12.867Z,94959.02
2019-05-13T14:06:25.036Z,95045.11
2019-05-13T14:06:58.377Z,94946.42
2019-05-13T14:07:13.139Z,95010.02
2019-05-13T14:08:44.450Z,94945.66
2019-05-13T14:11:16.058Z,94951.62
2019-05-13T14:13:47.675Z,94948.78
2019-05-13T14:16:28.482Z,94945.53
2019-05-13T14:18:53.262Z,94954.59
2019-05-13T14:21:25.315Z,94956.15
2019-05-13T14:23:57.270Z,94953.55
2019-05-13T14:26:28.943Z,94941.17
2019-05-13T14:29:02.626Z,94939.48
2019-05-13T14:31:34.428Z,94935.95
2019-05-13T14:34:06.307Z,94928.84
2019-05-13T14:36:37.786Z,94931.72
2019-05-13T14:39:12.049Z,94926.45
2019-05-13T14:41:43.590Z,94924.12
2019-05-13T14:44:15.159Z,94917.66
2019-05-13T14:46:48.025Z,94933.45
2019-05-13T14:49:19.014Z,94936.41
2019-05-13T14:51:52.247Z,94934.89
2019-05-13T14:54:26.825Z,94935.16
2019-05-13T14:56:59.143Z,94917.21
2019-05-13T14:59:31.588Z,94913.18
2019-05-13T15:02:03.460Z,94918.93
2019-05-13T15:04:36.147Z,94917.96
2019-05-13T15:07:07.882Z,94913.92
2019-05-13T15:09:41.948Z,94907.63
2019-05-13T15:12:12.817Z,94912.77
2019-05-13T15:14:44.377Z,94916.39
2019-05-13T15:17:16.038Z,94917.87
2019-05-13T15:19:47.816Z,94919.03
2019-05-13T15:22:22.467Z,94914.45
2019-05-13T15:24:52.875Z,94914.54
2019-05-13T15:27:24.661Z,94914.22
2019-05-13T15:29:56.399Z,94915.61
2019-05-13T15:32:28.353Z,94911.93
2019-05-13T15:35:02.234Z,94910.84
2019-05-13T15:37:33.729Z,94911.38
2019-05-13T15:40:05.474Z,94927.44
2019-05-13T15:42:37.112Z,94919.23
2019-05-13T15:45:12.680Z,94912.94
2019-05-13T15:47:44.646Z,94921.49
2019-05-13T15:50:17.397Z,94916.47
2019-05-13T15:52:49.179Z,94922.92
2019-05-13T15:55:22.082Z,94916.78
2019-05-13T15:57:53.582Z,94920.80
2019-05-13T16:00:25.230Z,94925.02
2019-05-13T16:02:57.406Z,94926.38
2019-05-13T16:05:28.985Z,94925.30
2019-05-13T16:08:02.490Z,94929.03
2019-05-13T16:10:34.603Z,94921.59
2019-05-13T16:13:06.296Z,94922.89
2019-05-13T16:15:38.222Z,94925.06
2019-05-13T16:18:11.708Z,94920.52
2019-05-13T16:20:45.369Z,94918.64
2019-05-13T16:23:16.480Z,94919.13
2019-05-13T16:25:48.074Z,94915.44
2019-05-13T16:28:19.952Z,94912.73
2019-05-13T16:30:51.797Z,94905.77
2019-05-13T16:33:24.497Z,94907.86
2019-05-13T16:35:56.129Z,94913.47
2019-05-13T16:38:27.984Z,94930.05
2019-05-13T16:40:59.814Z,94925.78
2019-05-13T16:43:32.074Z,94933.58
2019-05-13T16:46:07.038Z,94929.20
2019-05-13T16:48:37.252Z,94927.66
2019-05-13T16:51:12.339Z,94922.30
2019-05-13T16:53:43.380Z,94918.00
2019-05-13T16:56:26.422Z,94921.22
2019-05-13T16:58:48.952Z,94926.61
2019-05-13T17:01:21.957Z,94924.47
2019-05-13T17:03:52.710Z,94925.34
2019-05-13T17:06:24.193Z,94933.04
2019-05-13T17:08:56.051Z,94927.17
2019-05-13T17:11:27.774Z,94930.42
2019-05-13T17:13:59.382Z,94923.47
2019-05-13T17:16:31.718Z,94924.27
2019-05-13T17:19:03.685Z,94932.02
2019-05-13T17:21:36.157Z,94935.03
2019-05-13T17:24:07.895Z,94928.05
2019-05-13T17:26:41.592Z,94923.30
2019-05-13T17:29:12.768Z,94924.08
2019-05-13T17:31:44.678Z,94933.45
2019-05-13T17:34:16.900Z,94928.08
2019-05-13T17:36:48.627Z,94931.84
2019-05-13T17:39:21.347Z,94933.98
2019-05-13T17:41:53.477Z,94933.72
2019-05-13T17:44:25.323Z,94935.56
2019-05-13T17:46:57.052Z,94933.19
2019-05-13T17:49:28.644Z,94935.32
2019-05-13T17:52:02.455Z,94932.14
2019-05-13T17:54:34.819Z,94930.24
2019-05-13T17:57:06.336Z,94929.45
2019-05-13T17:59:38.037Z,94932.94
2019-05-13T18:02:11.803Z,94929.73
2019-05-13T18:04:43.501Z,94932.37
2019-05-13T18:07:18.221Z,94931.36
2019-05-13T18:09:52.059Z,94940.70
2019-05-13T18:12:24.009Z,94940.44
2019-05-13T18:14:55.535Z,94930.03
2019-05-13T18:17:27.312Z,94923.10
2019-05-13T18:20:02.419Z,94910.55
2019-05-13T18:22:33.649Z,94916.70
2019-05-13T18:25:05.200Z,94915.63
2019-05-13T18:27:37.254Z,94912.14
2019-05-13T18:30:11.316Z,94912.16
2019-05-13T18:32:42.682Z,94914.83
2019-05-13T18:35:14.755Z,94912.95
2019-05-13T18:37:46.370Z,94917.75
2019-05-13T18:40:18.578Z,94919.37
2019-05-13T18:42:51.442Z,94919.09
2019-05-13T18:45:23.371Z,94926.30
2019-05-13T18:47:54.968Z,94938.31
2019-05-13T18:50:26.546Z,94937.52
2019-05-13T18:52:58.183Z,94933.49
2019-05-13T18:55:30.175Z,94936.97
2019-05-13T18:58:01.897Z,94935.91
2019-05-13T19:00:33.491Z,94935.37
2019-05-13T19:03:05.571Z,94944.44
2019-05-13T19:05:37.164Z,94951.94
2019-05-13T19:08:08.905Z,94960.21
2019-05-13T19:10:41.490Z,94955.39
2019-05-13T19:13:13.736Z,94959.12
2019-05-13T19:15:45.406Z,94955.39
2019-05-13T19:18:18.139Z,94960.75
2019-05-13T19:20:51.322Z,94951.40
2019-05-13T19:23:23.423Z,94954.59
2019-05-13T19:25:55.061Z,94953.27
2019-05-13T19:28:26.892Z,94950.60
2019-05-13T19:30:58.558Z,94946.84
2019-05-13T19:33:30.351Z,94944.45
2019-05-13T19:36:02.020Z,94940.72
2019-05-13T19:38:34.164Z,94953.26
2019-05-13T19:41:05.990Z,94948.45
2019-05-13T19:43:37.808Z,94949.78
2019-05-13T19:46:09.644Z,94949.27
2019-05-13T19:48:41.858Z,94940.97
2019-05-13T19:51:13.579Z,94941.79
2019-05-13T19:53:45.274Z,94944.44
2019-05-13T19:56:17.165Z,94955.66
2019-05-13T19:58:49.298Z,94948.45
2019-05-13T20:01:21.763Z,94950.33
2019-05-13T20:03:53.594Z,94955.67
2019-05-13T20:06:26.049Z,94942.31
2019-05-13T20:08:57.943Z,94945.52
2019-05-13T20:11:29.658Z,94943.39
2019-05-13T20:14:01.535Z,94946.86
2019-05-13T20:16:33.374Z,94946.02
2019-05-13T20:19:05.141Z,94941.47
2019-05-13T20:21:37.127Z,94936.67
2019-05-13T20:24:08.927Z,94935.59
2019-05-13T20:26:42.038Z,94932.64
2019-05-13T20:29:13.817Z,94928.64
2019-05-13T20:31:45.572Z,94920.11
2019-05-13T20:34:17.027Z,94914.23
2019-05-13T20:36:51.435Z,94917.15
2019-05-13T20:39:22.587Z,94925.15
2019-05-13T20:41:55.874Z,94927.56
2019-05-13T20:44:27.892Z,94927.01
2019-05-13T20:47:01.630Z,94920.08
2019-05-13T20:49:33.025Z,94916.33
2019-05-13T20:52:04.772Z,94906.75
2019-05-13T20:54:36.540Z,94909.67
2019-05-13T20:57:08.126Z,94914.73
2019-05-13T20:59:41.361Z,94923.27
2019-05-13T21:02:12.566Z,94926.47
2019-05-13T21:04:44.282Z,94936.34
2019-05-13T21:07:17.112Z,94931.24
2019-05-13T21:09:48.585Z,94919.77
2019-05-13T21:12:22.014Z,94917.90
2019-05-13T21:14:53.388Z,94911.25
2019-05-13T21:17:25.419Z,94913.66
2019-05-13T21:20:01.108Z,94919.52
2019-05-13T21:22:31.735Z,94924.06
2019-05-13T21:25:03.464Z,94916.03
2019-05-13T21:27:35.180Z,94919.53
2019-05-13T21:30:06.959Z,94899.78
2019-05-13T21:32:38.701Z,94897.40
2019-05-13T21:35:11.897Z,94895.53
2019-05-13T21:37:43.924Z,94881.91
2019-05-13T21:40:18.276Z,94881.11
2019-05-13T21:42:52.441Z,94862.95
2019-05-13T21:45:23.561Z,94849.36
2019-05-13T21:47:55.271Z,94865.03
2019-05-13T21:50:34.241Z,94861.02
2019-05-13T21:53:02.051Z,94859.38
2019-05-13T21:55:33.974Z,94853.81
2019-05-13T21:58:05.621Z,94851.13
2019-05-13T22:00:42.992Z,94860.91
2019-05-13T22:03:15.961Z,94863.86
2019-05-13T22:05:47.650Z,94869.40
2019-05-13T22:08:21.669Z,94862.66
2019-05-13T22:10:53.164Z,94871.13
2019-05-13T22:13:25.074Z,94869.76
2019-05-13T22:15:56.992Z,94867.44
2019-05-13T22:18:31.427Z,94869.84
2019-05-13T22:21:02.645Z,94872.20
2019-05-13T22:23:34.261Z,94868.14
2019-05-13T22:26:05.987Z,94867.81
2019-05-13T22:28:37.824Z,94864.15
2019-05-13T22:31:11.639Z,94863.63
2019-05-13T22:33:45.205Z,94861.48
2019-05-13T22:36:15.025Z,94880.61
2019-05-13T22:38:46.735Z,94882.64
2019-05-13T22:41:18.122Z,94880.76
2019-05-13T22:43:55.628Z,94888.42
2019-05-13T22:46:23.318Z,94884.34
2019-05-13T22:48:55.258Z,94869.24
2019-05-13T22:51:26.955Z,94845.34
2019-05-13T22:53:59.257Z,94855.71
2019-05-13T22:56:31.985Z,94872.22
2019-05-13T22:59:04.040Z,94890.30
2019-05-13T23:01:36.203Z,94892.83
2019-05-13T23:04:08.306Z,94885.95
2019-05-13T23:06:40.184Z,94881.14
2019-05-13T23:09:12.620Z,94876.88
2019-05-13T23:11:47.203Z,94880.00
2019-05-13T23:14:19.131Z,94873.69
2019-05-13T23:16:50.879Z,94881.36
2019-05-13T23:19:22.399Z,94888.70
2019-05-13T23:21:54.998Z,94874.38
2019-05-13T23:24:26.712Z,94888.92
2019-05-13T23:26:58.560Z,94889.51
2019-05-13T23:29:31.934Z,94888.92
2019-05-13T23:32:04.970Z,94899.00
2019-05-13T23:34:36.701Z,94901.45
2019-05-13T23:37:08.465Z,94909.58
2019-05-13T23:39:41.612Z,94906.61
2019-05-13T23:42:14.635Z,94903.15
2019-05-13T23:44:46.566Z,94894.52
2019-05-13T23:47:18.573Z,94892.11
2019-05-13T23:49:51.308Z,94895.45
2019-05-13T23:52:23.284Z,94885.03
2019-05-13T23:54:55.024Z,94868.43
2019-05-13T23:57:27.097Z,94857.81
2019-05-13T23:59:58.715Z,94852.71
